Time;durP1;ratioP1;P1;durP2;ratioP2;P2;SDS_P1;SDS_P2;PMS_P1;PMS_P2;Temp;Humidity;BMP_temperature;BMP_pressure;BME280_temperature;BME280_humidity;BME280_pressure;Samples;Min_cycle;Max_cycle;Signal;HPM_P1;HPM_P2
2023/11/05 00:00:06;;;;;;;5.90;0.73;;;8.30;99.90;;;;;;5032074;28;20536;-69
2023/11/05 00:02:34;;;;;;;5.70;0.63;;;8.40;99.90;;;;;;5042719;28;20443;-69
2023/11/05 00:05:02;;;;;;;5.83;0.53;;;8.50;99.90;;;;;;5048207;28;20530;-70
2023/11/05 00:07:30;;;;;;;7.50;0.70;;;8.60;99.90;;;;;;5046454;28;20468;-68
2023/11/05 00:09:58;;;;;;;8.53;0.80;;;8.70;99.90;;;;;;5042806;28;20449;-68
2023/11/05 00:12:26;;;;;;;5.50;0.50;;;8.60;99.90;;;;;;5040225;28;20539;-68
2023/11/05 00:14:54;;;;;;;5.50;0.50;;;8.50;99.90;;;;;;5045059;28;20481;-67
2023/11/05 00:17:23;;;;;;;5.80;0.70;;;8.60;99.90;;;;;;5040855;28;20540;-71
2023/11/05 00:19:51;;;;;;;5.37;0.43;;;8.60;99.90;;;;;;5048726;28;20833;-68
2023/11/05 00:22:19;;;;;;;7.07;0.73;;;8.60;99.90;;;;;;5047160;28;20991;-68
2023/11/05 00:24:47;;;;;;;5.50;0.60;;;8.60;99.90;;;;;;5047925;28;21198;-67
2023/11/05 00:27:15;;;;;;;5.70;0.70;;;8.50;99.90;;;;;;5041890;28;20965;-68
2023/11/05 00:29:43;;;;;;;6.87;1.00;;;8.60;99.90;;;;;;5047619;28;20456;-67
2023/11/05 00:32:11;;;;;;;5.90;0.57;;;8.50;99.90;;;;;;5047119;28;20453;-67
2023/11/05 00:34:41;;;;;;;6.20;0.83;;;8.60;99.90;;;;;;5040479;28;20566;-67
2023/11/05 00:37:10;;;;;;;5.70;0.50;;;8.50;99.90;;;;;;5047358;28;20940;-68
2023/11/05 00:39:40;;;;;;;5.57;0.60;;;8.60;99.90;;;;;;5040319;28;20469;-67
2023/11/05 00:42:08;;;;;;;5.77;0.80;;;8.50;99.90;;;;;;5046626;28;20449;-68
2023/11/05 00:44:36;;;;;;;7.40;0.50;;;8.60;99.90;;;;;;5034023;28;21033;-67
2023/11/05 00:47:04;;;;;;;6.17;0.60;;;8.60;99.90;;;;;;5047180;28;20552;-67
2023/11/05 00:49:31;;;;;;;5.70;0.60;;;8.70;99.90;;;;;;5043930;28;21109;-68
2023/11/05 00:52:01;;;;;;;5.90;0.50;;;8.80;99.90;;;;;;5037653;28;20497;-66
2023/11/05 00:54:30;;;;;;;7.13;0.67;;;8.90;99.90;;;;;;5040612;28;20548;-66
2023/11/05 00:56:58;;;;;;;6.03;0.50;;;8.80;99.90;;;;;;5046791;28;20470;-68
2023/11/05 00:59:26;;;;;;;5.67;0.50;;;8.80;99.90;;;;;;5042705;28;20534;-67
2023/11/05 01:01:54;;;;;;;6.47;0.60;;;8.80;99.90;;;;;;5041121;28;20440;-67
2023/11/05 01:04:22;;;;;;;5.50;0.40;;;8.80;99.90;;;;;;5040557;28;20446;-67
2023/11/05 01:06:50;;;;;;;5.90;0.50;;;8.80;99.90;;;;;;5045105;28;20469;-67
2023/11/05 01:09:19;;;;;;;5.90;0.40;;;8.80;99.90;;;;;;5046134;28;21006;-66
2023/11/05 01:11:47;;;;;;;5.90;0.60;;;8.70;99.90;;;;;;5047731;28;20470;-70
2023/11/05 01:14:15;;;;;;;6.10;0.60;;;8.70;99.90;;;;;;5044846;28;20568;-69
2023/11/05 01:16:43;;;;;;;5.37;0.40;;;8.70;99.90;;;;;;5045454;28;20475;-69
2023/11/05 01:19:11;;;;;;;5.33;0.40;;;8.70;99.90;;;;;;5047348;28;20558;-68
2023/11/05 01:21:41;;;;;;;5.50;0.40;;;8.90;99.90;;;;;;5043068;28;20447;-69
2023/11/05 01:24:09;;;;;;;5.60;0.40;;;8.90;99.90;;;;;;5039274;28;20450;-68
2023/11/05 01:26:39;;;;;;;5.60;0.50;;;8.90;99.90;;;;;;5038275;28;20548;-65
2023/11/05 01:29:07;;;;;;;5.60;0.40;;;8.90;99.90;;;;;;5045366;28;20443;-67
2023/11/05 01:31:35;;;;;;;5.60;0.60;;;9.00;99.90;;;;;;5038429;28;20501;-67
2023/11/05 01:34:04;;;;;;;5.50;0.50;;;9.00;99.90;;;;;;5044846;28;20445;-64
2023/11/05 01:36:32;;;;;;;7.27;0.60;;;9.10;99.90;;;;;;5034135;28;20555;-68
2023/11/05 01:39:00;;;;;;;5.67;0.50;;;9.20;99.90;;;;;;5035146;28;20437;-68
2023/11/05 01:41:28;;;;;;;5.40;0.43;;;9.30;99.90;;;;;;5046701;28;20506;-70
2023/11/05 01:43:57;;;;;;;5.50;0.43;;;9.40;99.90;;;;;;5046696;28;20512;-69
2023/11/05 01:46:26;;;;;;;5.50;0.40;;;9.50;99.90;;;;;;5047470;28;20514;-68
2023/11/05 01:48:54;;;;;;;5.80;0.60;;;9.70;99.90;;;;;;5048752;28;20515;-67
2023/11/05 01:51:22;;;;;;;6.57;0.40;;;9.70;99.90;;;;;;5042488;28;20575;-68
2023/11/05 01:53:53;;;;;;;6.60;0.50;;;9.70;99.90;;;;;;5048028;28;20507;-68
2023/11/05 01:56:23;;;;;;;6.20;0.37;;;9.70;99.90;;;;;;5047824;28;20568;-67
2023/11/05 01:58:52;;;;;;;5.90;0.67;;;9.70;99.90;;;;;;5054740;28;20524;-70
2023/11/05 02:01:23;;;;;;;5.90;0.73;;;9.60;99.90;;;;;;5048415;28;20500;-67
2023/11/05 02:03:51;;;;;;;5.90;0.87;;;9.60;99.90;;;;;;5047801;28;20457;-68
2023/11/05 02:06:19;;;;;;;5.60;0.50;;;9.60;99.90;;;;;;5048143;28;20463;-68
2023/11/05 02:08:47;;;;;;;6.00;0.47;;;9.60;99.90;;;;;;5039428;28;20503;-68
2023/11/05 02:11:14;;;;;;;6.00;0.47;;;9.70;99.90;;;;;;5048112;28;20544;-69
2023/11/05 02:13:46;;;;;;;5.80;0.40;;;9.80;99.90;;;;;;5048632;28;20886;-71
2023/11/05 02:16:15;;;;;;;5.60;0.50;;;9.80;99.90;;;;;;5044460;28;20480;-66
2023/11/05 02:18:45;;;;;;;6.83;0.90;;;9.90;99.90;;;;;;5040821;28;20840;-68
2023/11/05 02:21:18;;;;;;;5.80;0.50;;;9.90;99.90;;;;;;5048143;28;20462;-68
2023/11/05 02:23:49;;;;;;;6.40;0.40;;;9.90;99.90;;;;;;5044946;28;21023;-68
2023/11/05 02:26:17;;;;;;;7.33;0.80;;;10.00;99.90;;;;;;5048384;28;20466;-69
2023/11/05 02:28:45;;;;;;;5.83;0.57;;;9.90;99.90;;;;;;5036162;28;20993;-69
2023/11/05 02:31:13;;;;;;;6.07;0.47;;;9.80;99.90;;;;;;5051088;28;20458;-70
2023/11/05 02:33:42;;;;;;;6.40;0.70;;;9.80;99.90;;;;;;5039927;28;20457;-70
2023/11/05 02:36:11;;;;;;;6.00;0.73;;;9.80;99.90;;;;;;5040058;28;20507;-69
2023/11/05 02:38:39;;;;;;;7.40;0.97;;;9.90;99.90;;;;;;5038757;28;20479;-69
2023/11/05 02:41:10;;;;;;;6.20;0.87;;;9.90;99.90;;;;;;5042904;28;20513;-70
2023/11/05 02:43:38;;;;;;;5.60;0.60;;;9.90;99.90;;;;;;5042445;28;20454;-70
2023/11/05 02:46:07;;;;;;;7.20;0.90;;;9.90;99.90;;;;;;5046734;28;20455;-68
2023/11/05 02:48:35;;;;;;;7.17;1.30;;;9.80;99.90;;;;;;5047453;28;20436;-69
2023/11/05 02:51:04;;;;;;;6.40;0.80;;;9.80;99.90;;;;;;5047944;28;20442;-68
2023/11/05 02:53:32;;;;;;;5.90;0.80;;;9.80;99.90;;;;;;5047207;28;20459;-68
2023/11/05 02:55:59;;;;;;;5.80;0.60;;;9.80;99.90;;;;;;5050530;28;20482;-68
2023/11/05 02:58:29;;;;;;;6.93;0.80;;;9.80;99.90;;;;;;5051970;28;21011;-69
2023/11/05 03:00:57;;;;;;;5.97;0.80;;;9.70;99.90;;;;;;5050177;28;20481;-68
2023/11/05 03:03:25;;;;;;;7.20;0.87;;;9.70;99.90;;;;;;5055984;28;20545;-71
2023/11/05 03:05:53;;;;;;;7.03;1.10;;;9.60;99.90;;;;;;5049670;28;20903;-70
2023/11/05 03:08:21;;;;;;;5.93;0.70;;;9.60;99.90;;;;;;5051901;28;20501;-70
2023/11/05 03:10:49;;;;;;;6.33;0.53;;;9.50;99.90;;;;;;5049490;28;20456;-69
2023/11/05 03:13:17;;;;;;;6.53;0.87;;;9.50;99.90;;;;;;5050845;28;20459;-69
2023/11/05 03:15:46;;;;;;;5.67;0.77;;;9.50;99.90;;;;;;5045102;28;20478;-68
2023/11/05 03:18:14;;;;;;;5.87;0.70;;;9.60;99.90;;;;;;5051710;28;20450;-66
2023/11/05 03:20:42;;;;;;;11.57;1.00;;;9.50;99.90;;;;;;5051443;28;20458;-69
2023/11/05 03:23:10;;;;;;;7.60;0.70;;;9.60;99.90;;;;;;5051270;28;20501;-69
2023/11/05 03:25:40;;;;;;;7.03;0.70;;;9.60;99.90;;;;;;5050928;28;20486;-71
2023/11/05 03:28:08;;;;;;;6.87;0.80;;;9.70;99.90;;;;;;5044498;28;20460;-69
2023/11/05 03:30:37;;;;;;;11.23;1.00;;;9.90;99.90;;;;;;5050825;28;20459;-68
2023/11/05 03:33:06;;;;;;;6.60;0.63;;;9.90;99.90;;;;;;5043863;28;20879;-68
2023/11/05 03:35:34;;;;;;;7.30;0.80;;;9.90;99.90;;;;;;5050287;28;20541;-69
2023/11/05 03:38:02;;;;;;;8.70;0.90;;;9.90;99.90;;;;;;5051494;28;20608;-69
2023/11/05 03:40:30;;;;;;;6.20;0.80;;;9.90;99.90;;;;;;5051054;28;20979;-69
2023/11/05 03:42:58;;;;;;;6.00;0.57;;;10.00;99.90;;;;;;5050992;28;20563;-71
2023/11/05 03:45:26;;;;;;;6.60;0.93;;;10.00;99.90;;;;;;5048818;28;20470;-69
2023/11/05 03:47:54;;;;;;;9.57;1.27;;;10.10;99.90;;;;;;5050789;28;20854;-71
2023/11/05 03:50:23;;;;;;;6.10;0.60;;;10.10;99.90;;;;;;5050930;28;20475;-70
2023/11/05 03:52:51;;;;;;;6.67;0.80;;;10.10;99.90;;;;;;5050212;28;20564;-67
2023/11/05 03:55:19;;;;;;;6.13;0.90;;;10.00;99.90;;;;;;5050047;28;20497;-69
2023/11/05 03:57:47;;;;;;;5.60;0.60;;;10.00;99.90;;;;;;5051256;28;21202;-67
2023/11/05 04:00:15;;;;;;;6.10;0.67;;;10.00;99.90;;;;;;5046949;28;20488;-67
2023/11/05 04:02:43;;;;;;;6.47;0.60;;;10.10;99.90;;;;;;5042905;28;20459;-67
2023/11/05 04:05:11;;;;;;;8.03;1.03;;;10.20;99.90;;;;;;5051993;28;20466;-67
2023/11/05 04:07:42;;;;;;;6.50;0.60;;;10.20;99.90;;;;;;5050615;28;20559;-66
2023/11/05 04:10:10;;;;;;;5.90;0.87;;;10.10;99.90;;;;;;5050810;28;20509;-68
2023/11/05 04:12:38;;;;;;;6.00;0.70;;;10.10;99.90;;;;;;5050776;28;20463;-70
2023/11/05 04:15:07;;;;;;;6.80;1.00;;;10.00;99.90;;;;;;5050368;28;21103;-68
2023/11/05 04:17:35;;;;;;;9.33;1.03;;;9.90;99.90;;;;;;5049668;28;20516;-69
2023/11/05 04:20:05;;;;;;;6.40;0.70;;;10.00;99.90;;;;;;5050337;28;20511;-67
2023/11/05 04:22:35;;;;;;;6.57;0.77;;;10.00;99.90;;;;;;5050474;28;20966;-69
2023/11/05 04:25:05;;;;;;;6.27;0.63;;;10.10;99.90;;;;;;5050254;28;20537;-68
2023/11/05 04:27:33;;;;;;;6.27;0.80;;;10.00;99.90;;;;;;5043444;28;20820;-68
2023/11/05 04:30:01;;;;;;;9.70;1.10;;;10.10;99.90;;;;;;5050195;28;20468;-67
2023/11/05 04:32:29;;;;;;;7.40;0.60;;;10.20;99.90;;;;;;5049683;28;20472;-69
2023/11/05 04:34:58;;;;;;;12.93;0.80;;;10.30;99.90;;;;;;5044509;28;21076;-70
2023/11/05 04:37:26;;;;;;;6.50;0.50;;;10.20;99.90;;;;;;5048314;28;20475;-67
2023/11/05 04:39:54;;;;;;;8.43;1.33;;;10.20;99.90;;;;;;5050000;28;20538;-67
2023/11/05 04:42:23;;;;;;;6.97;1.00;;;10.40;99.90;;;;;;5049941;28;20459;-68
2023/11/05 04:44:51;;;;;;;6.03;0.80;;;10.50;99.90;;;;;;5049084;28;20475;-66
2023/11/05 04:47:19;;;;;;;6.47;0.80;;;10.70;99.90;;;;;;5049943;28;20444;-68
2023/11/05 04:49:47;;;;;;;8.00;0.90;;;10.80;99.90;;;;;;5050030;28;20474;-68
2023/11/05 04:52:15;;;;;;;6.67;0.50;;;10.80;99.90;;;;;;5047050;28;20920;-67
2023/11/05 04:54:43;;;;;;;8.33;0.67;;;10.80;99.90;;;;;;5049352;28;20554;-67
2023/11/05 04:57:15;;;;;;;6.37;0.60;;;10.90;99.90;;;;;;5049542;28;20865;-66
2023/11/05 04:59:44;;;;;;;7.20;1.53;;;10.90;99.90;;;;;;5049758;28;20459;-66
2023/11/05 05:02:12;;;;;;;7.67;0.70;;;11.00;99.90;;;;;;5049280;28;20476;-68
2023/11/05 05:04:40;;;;;;;7.20;0.70;;;11.00;99.90;;;;;;5048480;28;20471;-68
2023/11/05 05:07:08;;;;;;;7.77;1.10;;;11.10;99.90;;;;;;5042708;28;20480;-68
2023/11/05 05:09:37;;;;;;;6.47;0.80;;;11.20;99.90;;;;;;5048207;28;21029;-68
2023/11/05 05:12:06;;;;;;;7.20;0.93;;;11.10;99.90;;;;;;5049635;28;20450;-67
2023/11/05 05:14:34;;;;;;;5.90;0.60;;;11.00;99.90;;;;;;5047876;28;20480;-68
2023/11/05 05:17:05;;;;;;;7.43;1.03;;;11.00;99.90;;;;;;5048292;28;20633;-69
2023/11/05 05:19:33;;;;;;;6.80;1.00;;;10.90;99.90;;;;;;5055536;28;20451;-67
2023/11/05 05:22:02;;;;;;;6.47;0.70;;;11.00;99.90;;;;;;5048559;28;21005;-67
2023/11/05 05:24:30;;;;;;;7.00;0.70;;;10.90;99.90;;;;;;5048273;28;21105;-69
2023/11/05 05:26:58;;;;;;;6.33;0.60;;;10.80;99.90;;;;;;5048866;28;20925;-67
2023/11/05 05:29:26;;;;;;;6.27;0.70;;;10.80;99.90;;;;;;5049188;28;20505;-67
2023/11/05 05:31:54;;;;;;;5.97;0.50;;;10.70;99.90;;;;;;5049306;28;20444;-67
2023/11/05 05:34:23;;;;;;;8.00;0.70;;;10.70;99.90;;;;;;5046013;28;21364;-67
2023/11/05 05:36:51;;;;;;;6.23;0.50;;;10.70;99.90;;;;;;5043272;28;21005;-70
2023/11/05 05:39:19;;;;;;;6.03;0.73;;;10.60;99.90;;;;;;5048809;28;20471;-69
2023/11/05 05:41:47;;;;;;;5.73;0.60;;;10.50;99.90;;;;;;5042550;28;20493;-68
2023/11/05 05:44:15;;;;;;;10.43;1.53;;;10.50;99.90;;;;;;5047936;28;20474;-70
2023/11/05 05:46:43;;;;;;;6.73;0.70;;;10.50;99.90;;;;;;5048320;28;20492;-68
2023/11/05 05:49:14;;;;;;;6.77;0.90;;;10.40;99.90;;;;;;5048589;28;20463;-67
2023/11/05 05:51:43;;;;;;;6.60;0.70;;;10.30;99.90;;;;;;5047649;28;21271;-67
2023/11/05 05:54:11;;;;;;;5.70;0.70;;;10.30;99.90;;;;;;5046177;28;20974;-67
2023/11/05 05:56:39;;;;;;;6.80;0.80;;;10.30;99.90;;;;;;5047405;28;20472;-69
2023/11/05 05:59:07;;;;;;;6.10;0.70;;;10.20;99.90;;;;;;5048243;28;20575;-69
2023/11/05 06:01:36;;;;;;;7.13;0.60;;;10.10;99.90;;;;;;5047868;28;20487;-67
2023/11/05 06:04:06;;;;;;;9.70;0.60;;;10.10;99.90;;;;;;5047393;28;20768;-67
2023/11/05 06:06:34;;;;;;;6.00;0.70;;;10.10;99.90;;;;;;5048003;28;20478;-68
2023/11/05 06:09:06;;;;;;;6.67;0.47;;;10.20;99.90;;;;;;5047894;28;21005;-70
2023/11/05 06:11:33;;;;;;;5.60;0.53;;;10.20;99.90;;;;;;5046609;28;20476;-67
2023/11/05 06:14:01;;;;;;;7.80;0.77;;;10.10;99.90;;;;;;5047695;28;20529;-68
2023/11/05 06:16:29;;;;;;;7.50;0.87;;;10.10;99.90;;;;;;5048140;28;20563;-68
2023/11/05 06:18:57;;;;;;;6.00;0.70;;;10.00;99.90;;;;;;5048130;28;20987;-68
2023/11/05 06:21:25;;;;;;;6.37;1.00;;;10.00;99.90;;;;;;5048091;28;20463;-70
2023/11/05 06:23:53;;;;;;;6.57;0.60;;;10.00;99.90;;;;;;5044829;28;20532;-69
2023/11/05 06:26:24;;;;;;;8.07;0.80;;;9.90;99.90;;;;;;5047440;28;20919;-69
2023/11/05 06:28:52;;;;;;;5.77;0.53;;;9.90;99.90;;;;;;5047208;28;21061;-70
2023/11/05 06:31:20;;;;;;;6.30;1.00;;;9.90;99.90;;;;;;5047998;28;20467;-68
2023/11/05 06:33:48;;;;;;;5.77;0.80;;;9.80;99.90;;;;;;5047503;28;20521;-69
2023/11/05 06:36:16;;;;;;;6.63;0.87;;;9.80;99.90;;;;;;5047626;28;20468;-67
2023/11/05 06:38:44;;;;;;;7.00;0.60;;;9.90;99.90;;;;;;5039568;28;21032;-68
2023/11/05 06:41:12;;;;;;;5.70;0.50;;;10.00;99.90;;;;;;5042629;28;20483;-70
2023/11/05 06:43:41;;;;;;;7.70;0.67;;;10.00;99.90;;;;;;5047114;28;20527;-69
2023/11/05 06:46:09;;;;;;;6.30;0.53;;;10.00;99.90;;;;;;5047080;28;20493;-70
2023/11/05 06:48:37;;;;;;;5.70;0.80;;;10.00;99.90;;;;;;5047753;28;20523;-67
2023/11/05 06:51:06;;;;;;;6.30;0.50;;;10.00;99.90;;;;;;5047289;28;20541;-67
2023/11/05 06:53:34;;;;;;;11.27;1.00;;;10.10;99.90;;;;;;5047510;28;20472;-70
2023/11/05 06:56:03;;;;;;;7.90;0.80;;;10.10;99.90;;;;;;5046956;28;20561;-70
2023/11/05 06:58:31;;;;;;;5.80;0.47;;;10.20;99.90;;;;;;5047707;28;20546;-68
2023/11/05 07:01:01;;;;;;;6.50;0.53;;;10.30;99.90;;;;;;5047921;28;21373;-67
2023/11/05 07:03:28;;;;;;;6.57;0.47;;;10.50;99.90;;;;;;5046816;28;20559;-68
2023/11/05 07:05:57;;;;;;;8.70;0.90;;;10.50;99.90;;;;;;5047415;28;20906;-67
2023/11/05 07:08:26;;;;;;;7.03;0.60;;;10.70;99.90;;;;;;5044117;28;20474;-67
2023/11/05 07:10:54;;;;;;;5.90;0.60;;;10.70;99.90;;;;;;5047023;28;20864;-67
2023/11/05 07:13:22;;;;;;;5.93;0.40;;;10.70;99.90;;;;;;5047216;28;21075;-69
2023/11/05 07:15:50;;;;;;;6.10;0.50;;;10.80;99.90;;;;;;5046900;28;20508;-70
2023/11/05 07:18:19;;;;;;;6.43;0.63;;;10.80;99.90;;;;;;5047676;28;20494;-68
2023/11/05 07:20:47;;;;;;;7.57;0.50;;;11.00;99.90;;;;;;5044367;28;20477;-67
2023/11/05 07:23:15;;;;;;;6.10;0.50;;;11.20;99.90;;;;;;5047540;28;20466;-65
2023/11/05 07:25:43;;;;;;;5.80;0.60;;;11.40;99.90;;;;;;5046995;28;20476;-67
2023/11/05 07:28:11;;;;;;;6.00;0.60;;;11.50;99.90;;;;;;5047482;28;20834;-67
2023/11/05 07:30:40;;;;;;;5.90;0.43;;;11.70;99.90;;;;;;5047113;28;20563;-67
2023/11/05 07:33:09;;;;;;;6.90;0.60;;;11.70;99.90;;;;;;5044031;28;20558;-68
2023/11/05 07:35:39;;;;;;;5.40;0.47;;;11.70;99.90;;;;;;5046274;28;20525;-68
2023/11/05 07:38:08;;;;;;;8.63;0.60;;;11.70;99.90;;;;;;5047469;28;20523;-68
2023/11/05 07:40:36;;;;;;;5.60;0.53;;;11.70;99.90;;;;;;5048465;28;20525;-66
2023/11/05 07:43:04;;;;;;;5.90;0.67;;;11.70;99.90;;;;;;5042370;28;20465;-66
2023/11/05 07:45:33;;;;;;;6.37;0.70;;;11.70;99.90;;;;;;5044291;28;20565;-67
2023/11/05 07:48:02;;;;;;;5.60;0.40;;;11.70;99.90;;;;;;5044192;28;20460;-68
2023/11/05 07:50:30;;;;;;;6.20;0.70;;;11.80;99.90;;;;;;5049702;28;22171;-69
2023/11/05 07:52:59;;;;;;;6.57;0.40;;;11.80;99.90;;;;;;5046651;28;20552;-69
2023/11/05 07:55:28;;;;;;;5.80;0.60;;;11.80;99.90;;;;;;5045414;28;20551;-68
2023/11/05 07:57:56;;;;;;;7.13;0.40;;;11.90;99.90;;;;;;5046997;28;20688;-67
2023/11/05 08:00:24;;;;;;;6.23;0.60;;;12.00;99.90;;;;;;5043525;28;20915;-66
2023/11/05 08:02:51;;;;;;;6.53;0.50;;;12.00;99.90;;;;;;5044443;28;20509;-66
2023/11/05 08:05:20;;;;;;;5.50;0.50;;;12.30;99.90;;;;;;5048790;28;20465;-68
2023/11/05 08:07:48;;;;;;;5.50;0.60;;;12.30;99.90;;;;;;5050608;28;20469;-69
2023/11/05 08:10:18;;;;;;;7.20;0.60;;;12.30;99.90;;;;;;5050584;28;20577;-66
2023/11/05 08:12:47;;;;;;;6.00;0.40;;;12.50;99.90;;;;;;5045054;28;20473;-66
2023/11/05 08:15:15;;;;;;;6.90;0.53;;;12.70;99.90;;;;;;5049324;28;20472;-65
2023/11/05 08:17:43;;;;;;;5.70;0.40;;;12.80;99.90;;;;;;5049765;28;20556;-67
2023/11/05 08:20:14;;;;;;;5.80;0.40;;;12.90;99.90;;;;;;5050623;28;20471;-66
2023/11/05 08:22:43;;;;;;;5.70;0.40;;;13.20;99.90;;;;;;5051406;28;20470;-69
2023/11/05 08:25:11;;;;;;;6.53;0.43;;;13.40;99.90;;;;;;5045564;28;20472;-66
2023/11/05 08:27:41;;;;;;;5.77;0.50;;;13.30;99.90;;;;;;5049405;28;20580;-69
2023/11/05 08:30:11;;;;;;;6.00;0.60;;;13.20;99.90;;;;;;5050261;28;20449;-69
2023/11/05 08:32:40;;;;;;;6.77;0.50;;;13.10;99.90;;;;;;5050130;28;20450;-66
2023/11/05 08:35:09;;;;;;;5.53;0.40;;;13.00;99.90;;;;;;5050176;28;20565;-67
2023/11/05 08:37:37;;;;;;;7.70;0.40;;;12.90;99.90;;;;;;5048448;28;20452;-65
2023/11/05 08:40:08;;;;;;;5.90;0.60;;;12.80;99.90;;;;;;5049906;28;20513;-66
2023/11/05 08:42:37;;;;;;;5.93;0.30;;;12.80;99.90;;;;;;5041104;28;20892;-67
2023/11/05 08:45:07;;;;;;;6.20;0.43;;;12.90;99.90;;;;;;5043483;28;20519;-67
2023/11/05 08:47:35;;;;;;;5.60;0.40;;;12.90;99.90;;;;;;5050295;28;20466;-65
2023/11/05 08:50:05;;;;;;;7.87;0.50;;;12.80;99.90;;;;;;5050035;28;20471;-67
2023/11/05 08:52:33;;;;;;;6.03;0.40;;;12.80;99.90;;;;;;5049887;28;20492;-67
2023/11/05 08:55:03;;;;;;;6.00;0.40;;;12.90;99.90;;;;;;5045736;28;20555;-67
2023/11/05 08:57:31;;;;;;;5.33;0.30;;;13.10;99.90;;;;;;5046976;28;20455;-69
2023/11/05 08:59:59;;;;;;;6.00;0.40;;;13.20;99.90;;;;;;5049721;28;20480;-73
2023/11/05 09:02:28;;;;;;;6.27;0.40;;;13.30;99.90;;;;;;5049581;28;20469;-70
2023/11/05 09:04:56;;;;;;;6.03;0.50;;;13.20;99.90;;;;;;5049241;28;20485;-67
2023/11/05 09:07:24;;;;;;;6.23;0.40;;;13.20;99.90;;;;;;5044109;28;20454;-67
2023/11/05 09:09:52;;;;;;;7.33;0.50;;;13.20;99.90;;;;;;5049310;28;20455;-68
2023/11/05 09:12:20;;;;;;;5.93;0.30;;;13.40;99.90;;;;;;5049366;28;20930;-68
2023/11/05 09:14:48;;;;;;;6.80;0.40;;;13.50;99.90;;;;;;5048781;28;20492;-69
2023/11/05 09:17:16;;;;;;;6.83;0.43;;;13.40;99.90;;;;;;5043653;28;20456;-68
2023/11/05 09:19:45;;;;;;;5.37;0.40;;;13.50;99.90;;;;;;5048438;28;20557;-67
2023/11/05 09:22:14;;;;;;;7.90;0.40;;;13.50;99.90;;;;;;5049035;28;20546;-68
2023/11/05 09:24:42;;;;;;;5.60;0.40;;;13.60;99.90;;;;;;5048531;28;20466;-68
2023/11/05 09:27:10;;;;;;;5.90;0.43;;;13.70;99.90;;;;;;5049240;28;20471;-68
2023/11/05 09:29:38;;;;;;;6.00;0.40;;;14.10;99.90;;;;;;5048538;28;20448;-68
2023/11/05 09:32:08;;;;;;;6.50;0.50;;;14.40;99.90;;;;;;5039392;28;21018;-68
2023/11/05 09:34:37;;;;;;;9.27;0.60;;;14.40;99.90;;;;;;5048220;28;20472;-68
2023/11/05 09:37:06;;;;;;;5.30;0.30;;;14.30;99.90;;;;;;5047455;28;20467;-66
2023/11/05 09:39:34;;;;;;;5.67;0.40;;;14.40;99.90;;;;;;5048348;28;20471;-66
2023/11/05 09:42:03;;;;;;;5.77;0.50;;;14.50;99.90;;;;;;5048674;28;20479;-66
2023/11/05 09:44:31;;;;;;;6.00;0.40;;;14.50;99.90;;;;;;5044535;28;20528;-69
2023/11/05 09:47:00;;;;;;;5.70;0.40;;;14.60;99.90;;;;;;5045222;28;20537;-68
2023/11/05 09:49:28;;;;;;;5.23;0.40;;;14.70;99.90;;;;;;5047067;28;20452;-71
2023/11/05 09:51:56;;;;;;;7.00;0.80;;;14.80;99.90;;;;;;5047225;28;20832;-68
2023/11/05 09:54:26;;;;;;;5.70;0.50;;;14.70;99.90;;;;;;5043214;28;20524;-68
2023/11/05 09:56:55;;;;;;;5.43;0.40;;;14.60;99.90;;;;;;5045033;28;20952;-70
2023/11/05 09:59:24;;;;;;;6.13;0.57;;;14.70;99.90;;;;;;5044147;28;20515;-70
2023/11/05 10:01:53;;;;;;;5.90;0.60;;;14.70;99.90;;;;;;5047057;28;21161;-68
2023/11/05 10:04:21;;;;;;;6.00;0.50;;;14.50;99.90;;;;;;5045981;28;20938;-69
2023/11/05 10:06:49;;;;;;;5.37;0.30;;;14.30;99.90;;;;;;5046490;28;20468;-68
2023/11/05 10:09:17;;;;;;;5.70;0.40;;;14.20;99.90;;;;;;5047832;28;20560;-67
2023/11/05 10:11:46;;;;;;;5.90;0.50;;;14.10;99.90;;;;;;5047324;28;20449;-69
2023/11/05 10:14:14;;;;;;;6.67;0.40;;;13.70;99.90;;;;;;5046280;28;20457;-68
2023/11/05 10:16:42;;;;;;;9.10;0.60;;;13.50;99.90;;;;;;5046856;28;20470;-68
2023/11/05 10:19:11;;;;;;;6.60;0.50;;;13.10;99.90;;;;;;5043850;28;20554;-70
2023/11/05 10:21:39;;;;;;;5.70;0.40;;;13.30;99.90;;;;;;5043373;28;20450;-70
2023/11/05 10:24:09;;;;;;;5.37;0.30;;;13.50;99.90;;;;;;5043769;28;20490;-70
2023/11/05 10:26:39;;;;;;;7.90;0.90;;;13.30;99.90;;;;;;5047552;28;21031;-68
2023/11/05 10:29:09;;;;;;;6.10;0.67;;;13.10;99.90;;;;;;5048177;28;20446;-71
2023/11/05 10:31:38;;;;;;;6.37;0.60;;;12.70;99.90;;;;;;5045450;28;20458;-69
2023/11/05 10:34:08;;;;;;;5.40;0.40;;;12.40;99.90;;;;;;5046757;28;20498;-67
2023/11/05 10:36:36;;;;;;;5.53;0.40;;;12.00;99.90;;;;;;5047039;28;20907;-73
2023/11/05 10:39:05;;;;;;;5.70;0.53;;;11.70;99.90;;;;;;5046964;28;20479;-71
2023/11/05 10:41:34;;;;;;;6.53;0.50;;;11.50;99.90;;;;;;5047037;28;20451;-69
2023/11/05 10:44:05;;;;;;;6.67;0.80;;;11.30;99.90;;;;;;5046380;28;20453;-69
2023/11/05 10:46:37;;;;;;;7.60;0.53;;;11.10;99.90;;;;;;5047451;28;20484;-70
2023/11/05 10:49:06;;;;;;;6.10;0.63;;;11.00;99.90;;;;;;5045880;28;20449;-69
2023/11/05 10:51:35;;;;;;;5.80;0.63;;;11.20;99.90;;;;;;5046588;28;20867;-76
2023/11/05 10:54:05;;;;;;;8.77;0.60;;;11.30;99.90;;;;;;5045987;28;20501;-74
2023/11/05 10:56:36;;;;;;;5.63;0.60;;;11.40;99.90;;;;;;5044785;28;20546;-70
2023/11/05 10:59:04;;;;;;;5.60;0.60;;;11.60;99.90;;;;;;5046548;28;20441;-69
2023/11/05 11:01:36;;;;;;;7.50;0.63;;;11.50;99.90;;;;;;5043875;28;20522;-71
2023/11/05 11:04:10;;;;;;;6.67;0.53;;;11.30;99.90;;;;;;5043623;28;20497;-72
2023/11/05 11:06:40;;;;;;;5.73;0.50;;;11.20;99.90;;;;;;5042166;28;20466;-72
2023/11/05 11:09:22;;;;;;;7.40;0.60;;;11.10;99.90;;;;;;5042761;28;20443;-70
2023/11/05 11:11:51;;;;;;;6.23;0.60;;;11.10;99.90;;;;;;5045088;28;20439;-70
2023/11/05 11:14:19;;;;;;;6.10;0.77;;;11.00;99.90;;;;;;5041425;28;21014;-70
2023/11/05 11:16:48;;;;;;;5.93;0.57;;;10.90;99.90;;;;;;5047407;28;20838;-70
2023/11/05 11:19:19;;;;;;;7.23;0.60;;;10.90;99.90;;;;;;5050565;28;20432;-71
2023/11/05 11:21:51;;;;;;;7.47;0.70;;;11.00;99.90;;;;;;5049760;28;20438;-73
2023/11/05 11:24:33;;;;;;;7.03;0.90;;;11.00;99.90;;;;;;5048847;28;20443;-71
2023/11/05 11:27:04;;;;;;;6.67;0.73;;;11.00;99.90;;;;;;5049780;28;20515;-72
2023/11/05 11:29:33;;;;;;;5.90;0.80;;;11.10;99.90;;;;;;5050629;28;21243;-71
2023/11/05 11:32:03;;;;;;;6.07;1.00;;;11.10;99.90;;;;;;5045435;28;20925;-69
2023/11/05 11:34:31;;;;;;;5.90;0.60;;;11.00;99.90;;;;;;5044459;28;20474;-73
2023/11/05 11:37:00;;;;;;;8.43;0.80;;;11.00;99.90;;;;;;5046062;28;20463;-73
2023/11/05 11:39:29;;;;;;;6.00;0.80;;;10.90;99.90;;;;;;5049421;28;20477;-71
2023/11/05 11:41:58;;;;;;;6.17;1.03;;;11.00;99.90;;;;;;5049829;28;21291;-70
2023/11/05 11:44:26;;;;;;;5.93;0.60;;;11.20;99.90;;;;;;5055658;28;20442;-74
2023/11/05 11:46:55;;;;;;;7.20;0.70;;;11.30;99.90;;;;;;5050375;28;20505;-71
2023/11/05 11:49:29;;;;;;;5.60;0.53;;;11.30;99.90;;;;;;5050376;28;20840;-72
2023/11/05 11:51:57;;;;;;;5.77;0.70;;;11.30;99.90;;;;;;5048741;28;20461;-72
2023/11/05 11:54:28;;;;;;;6.10;0.80;;;11.40;99.90;;;;;;5049086;28;20509;-70
2023/11/05 11:56:57;;;;;;;6.20;0.60;;;11.60;99.90;;;;;;5042459;28;20470;-71
2023/11/05 11:59:25;;;;;;;6.40;0.70;;;11.70;99.90;;;;;;5045468;28;20461;-70
2023/11/05 12:01:54;;;;;;;8.50;0.80;;;11.70;99.90;;;;;;5045619;28;20487;-72
2023/11/05 12:04:23;;;;;;;7.50;0.50;;;11.80;99.90;;;;;;5049400;28;20452;-74
2023/11/05 12:06:53;;;;;;;5.83;0.70;;;11.80;99.90;;;;;;5050712;28;20467;-71
2023/11/05 12:09:23;;;;;;;5.70;0.37;;;11.70;99.90;;;;;;5049366;28;20454;-70
2023/11/05 12:11:52;;;;;;;5.80;0.60;;;11.60;99.90;;;;;;5050367;28;20447;-71
2023/11/05 12:14:22;;;;;;;5.70;0.70;;;11.50;99.90;;;;;;5049659;28;20501;-72
2023/11/05 12:16:50;;;;;;;5.50;0.40;;;11.60;99.90;;;;;;5049182;28;20479;-70
2023/11/05 12:19:19;;;;;;;5.50;0.50;;;11.60;99.90;;;;;;5050350;28;20457;-72
2023/11/05 12:21:49;;;;;;;5.40;0.40;;;11.70;99.90;;;;;;5047975;28;20503;-72
2023/11/05 12:24:19;;;;;;;5.70;0.50;;;11.70;99.90;;;;;;5047110;28;20557;-72
2023/11/05 12:26:47;;;;;;;5.50;0.40;;;11.90;99.90;;;;;;5049380;28;20506;-72
2023/11/05 12:29:15;;;;;;;8.90;0.73;;;11.80;99.90;;;;;;5057283;28;20580;-70
2023/11/05 12:31:44;;;;;;;5.47;0.40;;;11.80;99.90;;;;;;5049122;28;20890;-70
2023/11/05 12:34:13;;;;;;;6.37;0.37;;;11.80;99.90;;;;;;5043420;28;20543;-74
2023/11/05 12:36:43;;;;;;;5.80;0.50;;;11.70;99.90;;;;;;5045072;28;20460;-74
2023/11/05 12:39:11;;;;;;;5.47;0.40;;;11.70;99.90;;;;;;5048644;28;20958;-73
2023/11/05 12:41:40;;;;;;;6.13;0.83;;;11.80;99.90;;;;;;5047650;28;20468;-75
2023/11/05 12:44:08;;;;;;;6.17;0.90;;;11.80;99.90;;;;;;5047879;28;20440;-69
2023/11/05 12:46:36;;;;;;;6.93;0.83;;;11.90;99.90;;;;;;5046811;28;20576;-69
2023/11/05 12:49:05;;;;;;;6.90;1.57;;;12.00;99.90;;;;;;5047818;28;20445;-72
2023/11/05 12:51:33;;;;;;;6.10;0.90;;;12.00;99.90;;;;;;5045654;28;20445;-72
2023/11/05 12:54:01;;;;;;;6.43;0.90;;;12.00;99.90;;;;;;5045586;28;20462;-71
2023/11/05 12:56:30;;;;;;;5.60;0.60;;;12.00;99.90;;;;;;5047271;28;20464;-73